Time;durP1;ratioP1;P1;durP2;ratioP2;P2;SDS_P1;SDS_P2;PMS_P1;PMS_P2;Temp;Humidity;BMP_temperature;BMP_pressure;BME280_temperature;BME280_humidity;BME280_pressure;Samples;Min_cycle;Max_cycle;Signal;HPM_P1;HPM_P2
2023/03/16 00:00:16;;;;;;;17.17;10.83;;;0.40;99.90;;;;;;5106116;28;20250;-78
2023/03/16 00:02:44;;;;;;;12.30;7.63;;;0.40;99.90;;;;;;5106309;28;21185;-78
2023/03/16 00:05:13;;;;;;;10.60;8.93;;;0.40;99.90;;;;;;5095039;28;20579;-76
2023/03/16 00:07:41;;;;;;;18.83;10.10;;;0.40;99.90;;;;;;5096099;28;20731;-78
2023/03/16 00:10:11;;;;;;;15.17;8.20;;;0.50;99.90;;;;;;5100002;28;20443;-78
2023/03/16 00:12:38;;;;;;;13.00;7.65;;;0.50;99.90;;;;;;5095488;28;20971;-77
2023/03/16 00:15:06;;;;;;;9.20;7.03;;;0.50;99.90;;;;;;5105752;28;20273;-76
2023/03/16 00:17:35;;;;;;;9.25;7.80;;;0.50;99.90;;;;;;5106455;28;20450;-76
2023/03/16 00:20:05;;;;;;;20.43;10.53;;;0.60;99.90;;;;;;5101287;28;20617;-78
2023/03/16 00:22:33;;;;;;;9.63;6.37;;;0.60;99.90;;;;;;5092890;28;20535;-77
2023/03/16 00:25:00;;;;;;;10.40;7.40;;;0.60;99.90;;;;;;5095774;28;20618;-77
2023/03/16 00:27:27;;;;;;;7.37;6.67;;;0.50;99.90;;;;;;5097462;28;20461;-77
2023/03/16 00:29:55;;;;;;;9.15;7.53;;;0.50;99.90;;;;;;5100509;28;20475;-77
2023/03/16 00:32:24;;;;;;;12.18;6.93;;;0.50;99.90;;;;;;5096055;28;20201;-77
2023/03/16 00:34:53;;;;;;;8.80;7.25;;;0.50;99.90;;;;;;5102716;28;20218;-77
2023/03/16 00:37:22;;;;;;;9.85;6.63;;;0.50;99.90;;;;;;5093949;28;20286;-78
2023/03/16 00:39:50;;;;;;;12.48;6.93;;;0.50;99.90;;;;;;5104808;28;20205;-77
2023/03/16 00:42:19;;;;;;;10.77;6.35;;;0.50;99.90;;;;;;5105128;28;20193;-77
2023/03/16 00:44:46;;;;;;;10.05;6.75;;;0.50;99.90;;;;;;5101108;28;20264;-77
2023/03/16 00:47:14;;;;;;;9.55;5.70;;;0.50;99.90;;;;;;5093111;28;20203;-77
2023/03/16 00:49:42;;;;;;;8.80;6.53;;;0.50;99.90;;;;;;5100420;28;20211;-78
2023/03/16 00:52:13;;;;;;;10.95;5.80;;;0.50;99.90;;;;;;5093555;28;20201;-76
2023/03/16 00:54:42;;;;;;;11.93;5.95;;;0.50;99.90;;;;;;5094049;28;20292;-78
2023/03/16 00:57:10;;;;;;;6.28;5.63;;;0.50;99.90;;;;;;5105547;28;20204;-77
2023/03/16 00:59:38;;;;;;;7.82;5.90;;;0.50;99.90;;;;;;5102351;28;20197;-77
2023/03/16 01:02:06;;;;;;;5.90;4.90;;;0.60;99.90;;;;;;5103381;28;20201;-77
2023/03/16 01:04:34;;;;;;;8.25;5.90;;;0.60;99.90;;;;;;5104981;28;20251;-77
2023/03/16 01:07:01;;;;;;;9.70;4.72;;;0.60;99.90;;;;;;5099399;28;20193;-77
2023/03/16 01:09:30;;;;;;;7.55;5.32;;;0.60;99.90;;;;;;5092099;28;20279;-78
2023/03/16 01:11:57;;;;;;;5.45;4.70;;;0.60;99.90;;;;;;5102155;28;20200;-77
2023/03/16 01:14:24;;;;;;;6.33;4.70;;;0.60;99.90;;;;;;5097256;28;20217;-78
2023/03/16 01:16:51;;;;;;;5.82;5.20;;;0.60;99.90;;;;;;5092164;28;20456;-79
2023/03/16 01:19:18;;;;;;;6.32;4.75;;;0.60;99.90;;;;;;5099930;28;20197;-78
2023/03/16 01:21:45;;;;;;;6.90;4.40;;;0.60;99.90;;;;;;5098801;28;20212;-77
2023/03/16 01:24:12;;;;;;;5.40;4.13;;;0.60;99.90;;;;;;5094424;28;20526;-77
2023/03/16 01:26:41;;;;;;;5.63;5.03;;;0.60;99.90;;;;;;5096041;28;20229;-77
2023/03/16 01:29:08;;;;;;;10.20;4.95;;;0.60;99.90;;;;;;5107876;28;20442;-77
2023/03/16 01:31:35;;;;;;;6.10;3.70;;;0.60;99.90;;;;;;5108139;28;20220;-78
2023/03/16 01:34:03;;;;;;;5.95;4.85;;;0.60;99.90;;;;;;5108615;28;20454;-78
2023/03/16 01:36:31;;;;;;;6.30;4.68;;;0.60;99.90;;;;;;5107145;28;20208;-78
2023/03/16 01:38:59;;;;;;;7.50;6.43;;;0.70;99.90;;;;;;5100188;28;20200;-79
2023/03/16 01:41:26;;;;;;;10.55;6.68;;;0.70;99.90;;;;;;5097931;28;20926;-77
2023/03/16 01:43:57;;;;;;;6.00;5.40;;;0.70;99.90;;;;;;5101567;28;20219;-77
2023/03/16 01:46:26;;;;;;;6.10;4.67;;;0.60;99.90;;;;;;5108952;28;20466;-77
2023/03/16 01:49:02;;;;;;;6.25;4.38;;;0.60;99.90;;;;;;5108303;28;20999;-78
2023/03/16 01:51:35;;;;;;;9.57;5.95;;;0.60;99.90;;;;;;5106550;28;20261;-77
2023/03/16 01:54:06;;;;;;;5.13;4.30;;;0.60;99.90;;;;;;5100586;28;20254;-78
2023/03/16 01:56:38;;;;;;;7.83;5.40;;;0.70;99.90;;;;;;5107087;28;20978;-77
2023/03/16 01:59:11;;;;;;;6.33;5.00;;;0.60;99.90;;;;;;5100948;28;20507;-77
2023/03/16 02:01:38;;;;;;;9.00;5.40;;;0.70;99.90;;;;;;5098513;28;20845;-78
2023/03/16 02:04:16;;;;;;;6.18;4.38;;;0.60;99.90;;;;;;5096263;28;20735;-77
2023/03/16 02:06:44;;;;;;;5.40;4.13;;;0.60;99.90;;;;;;5108423;28;20208;-77
2023/03/16 02:09:12;;;;;;;7.20;6.07;;;0.60;99.90;;;;;;5091251;28;20205;-77
2023/03/16 02:11:39;;;;;;;9.40;5.33;;;0.60;99.90;;;;;;5092157;28;20717;-77
2023/03/16 02:14:09;;;;;;;5.10;4.60;;;0.60;99.90;;;;;;5093938;28;20511;-77
2023/03/16 02:16:37;;;;;;;5.77;5.17;;;0.60;99.90;;;;;;5094886;28;20205;-77
2023/03/16 02:19:08;;;;;;;6.40;5.00;;;0.60;99.90;;;;;;5104181;28;20473;-78
2023/03/16 02:21:44;;;;;;;6.10;5.17;;;0.60;99.90;;;;;;5102202;28;20471;-77
2023/03/16 02:24:11;;;;;;;6.60;4.00;;;0.60;99.90;;;;;;5097463;28;20545;-77
2023/03/16 02:26:44;;;;;;;6.90;4.57;;;0.60;99.90;;;;;;5101123;28;20236;-77
2023/03/16 02:29:20;;;;;;;6.80;4.80;;;0.60;99.90;;;;;;5106380;28;20253;-78
2023/03/16 02:31:49;;;;;;;4.20;3.83;;;0.60;99.90;;;;;;5098670;28;20200;-77
2023/03/16 02:34:17;;;;;;;5.22;3.88;;;0.50;99.90;;;;;;5095019;28;20510;-78
2023/03/16 02:36:46;;;;;;;8.70;4.47;;;0.50;99.90;;;;;;5100893;28;20193;-77
2023/03/16 02:39:13;;;;;;;7.10;4.95;;;0.40;99.90;;;;;;5098675;28;21092;-78
2023/03/16 02:41:41;;;;;;;7.35;4.28;;;0.40;99.90;;;;;;5100068;28;20192;-78
2023/03/16 02:44:14;;;;;;;6.90;3.80;;;0.40;99.90;;;;;;5105377;28;20252;-79
2023/03/16 02:46:43;;;;;;;6.63;4.20;;;0.40;99.90;;;;;;5103419;28;20202;-77
2023/03/16 02:49:17;;;;;;;4.87;3.47;;;0.40;99.90;;;;;;5096634;28;20482;-78
2023/03/16 02:51:45;;;;;;;6.25;4.65;;;0.30;99.90;;;;;;5099550;28;20442;-77
2023/03/16 02:54:12;;;;;;;5.40;4.20;;;0.30;99.90;;;;;;5101574;28;20278;-78
2023/03/16 02:56:39;;;;;;;4.78;4.30;;;0.30;99.90;;;;;;5094990;28;20507;-77
2023/03/16 02:59:06;;;;;;;6.18;5.13;;;0.20;99.90;;;;;;5106011;28;20569;-78
2023/03/16 03:01:35;;;;;;;6.63;4.80;;;0.20;99.90;;;;;;5106059;28;20201;-78
2023/03/16 03:04:02;;;;;;;5.33;4.60;;;0.20;99.90;;;;;;5097109;28;20256;-77
2023/03/16 03:06:31;;;;;;;5.40;4.88;;;0.20;99.90;;;;;;5093898;28;20505;-78
2023/03/16 03:08:58;;;;;;;6.13;4.65;;;0.20;99.90;;;;;;5094096;28;20232;-77
2023/03/16 03:11:25;;;;;;;5.65;5.07;;;0.20;99.90;;;;;;5097341;28;20716;-78
2023/03/16 03:13:52;;;;;;;3.73;3.33;;;0.20;99.90;;;;;;5106108;28;20227;-77
2023/03/16 03:16:19;;;;;;;5.45;5.05;;;0.20;99.90;;;;;;5096597;28;20525;-79
2023/03/16 03:18:46;;;;;;;4.45;3.88;;;0.20;99.90;;;;;;5105026;28;20984;-78
2023/03/16 03:21:13;;;;;;;6.22;5.03;;;0.20;99.90;;;;;;5101794;28;20205;-76
2023/03/16 03:23:41;;;;;;;5.05;3.83;;;0.20;99.90;;;;;;5097621;28;20233;-77
2023/03/16 03:26:08;;;;;;;5.00;4.22;;;0.20;99.90;;;;;;5100260;28;20229;-77
2023/03/16 03:28:35;;;;;;;6.97;4.05;;;0.30;99.90;;;;;;5104256;28;20574;-78
2023/03/16 03:31:02;;;;;;;7.15;4.95;;;0.30;99.90;;;;;;5098978;28;20279;-78
2023/03/16 03:33:29;;;;;;;6.47;4.20;;;0.30;99.90;;;;;;5104539;28;20212;-77
2023/03/16 03:35:56;;;;;;;4.90;4.03;;;0.30;99.90;;;;;;5092085;28;20317;-77
2023/03/16 03:38:24;;;;;;;6.20;5.13;;;0.20;99.90;;;;;;5089093;28;20210;-78
2023/03/16 03:40:53;;;;;;;6.57;4.53;;;0.20;99.90;;;;;;5103274;28;20246;-77
2023/03/16 03:43:21;;;;;;;4.90;4.25;;;0.20;99.90;;;;;;5104486;28;20204;-76
2023/03/16 03:45:48;;;;;;;7.13;5.45;;;0.20;99.90;;;;;;5098429;28;20192;-77
2023/03/16 03:48:15;;;;;;;6.55;4.70;;;0.20;99.90;;;;;;5104747;28;20208;-78
2023/03/16 03:50:42;;;;;;;5.93;4.47;;;0.20;99.90;;;;;;5104457;28;20285;-76
2023/03/16 03:53:09;;;;;;;5.47;3.55;;;0.20;99.90;;;;;;5102602;28;20722;-77
2023/03/16 03:55:36;;;;;;;4.45;4.05;;;0.10;99.90;;;;;;5104635;28;20283;-78
2023/03/16 03:58:04;;;;;;;6.13;4.10;;;0.10;99.90;;;;;;5096233;28;20280;-77
2023/03/16 04:00:31;;;;;;;4.85;4.30;;;0.10;99.90;;;;;;5105865;28;20201;-77
2023/03/16 04:02:58;;;;;;;9.10;4.53;;;0.10;99.90;;;;;;5094294;28;20316;-77
2023/03/16 04:05:26;;;;;;;6.00;4.30;;;0.00;99.90;;;;;;5106201;28;20756;-77
2023/03/16 04:07:56;;;;;;;5.40;4.87;;;-0.10;99.90;;;;;;5100433;28;20207;-77
2023/03/16 04:10:24;;;;;;;6.53;4.68;;;-0.20;99.90;;;;;;5105298;28;20459;-77
2023/03/16 04:12:51;;;;;;;5.20;4.23;;;-0.40;99.90;;;;;;5104769;28;20201;-77
2023/03/16 04:15:21;;;;;;;4.25;3.88;;;-0.40;99.90;;;;;;5102641;28;20470;-77
2023/03/16 04:17:48;;;;;;;5.25;4.13;;;-0.50;99.90;;;;;;5091024;28;20204;-77
2023/03/16 04:20:18;;;;;;;6.83;4.63;;;-0.40;99.90;;;;;;5106065;28;20205;-77
2023/03/16 04:22:45;;;;;;;4.53;4.17;;;-0.50;99.90;;;;;;5097839;28;20958;-78
2023/03/16 04:25:14;;;;;;;8.25;6.13;;;-0.50;99.90;;;;;;5095849;28;20553;-78
2023/03/16 04:27:42;;;;;;;5.00;4.45;;;-0.50;99.90;;;;;;5091173;28;20665;-78
2023/03/16 04:30:11;;;;;;;5.40;4.05;;;-0.50;99.90;;;;;;5097966;28;20196;-78
2023/03/16 04:32:41;;;;;;;5.77;4.80;;;-0.50;99.90;;;;;;5097644;28;20816;-78
2023/03/16 04:35:09;;;;;;;7.78;5.10;;;-0.40;99.90;;;;;;5100697;28;20482;-78
2023/03/16 04:37:36;;;;;;;5.50;5.00;;;-0.40;99.90;;;;;;5097790;28;20197;-77
2023/03/16 04:40:10;;;;;;;8.47;5.10;;;-0.40;99.90;;;;;;5101115;28;20200;-77
2023/03/16 04:42:37;;;;;;;6.22;5.35;;;-0.40;99.90;;;;;;5099460;28;21103;-78
2023/03/16 04:45:05;;;;;;;6.18;5.10;;;-0.40;99.90;;;;;;5096668;28;20298;-76
2023/03/16 04:47:32;;;;;;;4.57;3.80;;;-0.40;99.90;;;;;;5104292;28;20196;-77
2023/03/16 04:50:01;;;;;;;11.68;5.60;;;-0.50;99.90;;;;;;5094231;28;20203;-78
2023/03/16 04:52:28;;;;;;;6.30;5.25;;;-0.60;99.90;;;;;;5101392;28;20193;-77
2023/03/16 04:54:55;;;;;;;6.38;5.40;;;-0.60;99.90;;;;;;5095086;28;20237;-77
2023/03/16 04:57:23;;;;;;;7.82;5.93;;;-0.50;99.90;;;;;;5093272;28;20204;-77
2023/03/16 04:59:50;;;;;;;6.47;5.80;;;-0.50;99.90;;;;;;5095324;28;20246;-77
2023/03/16 05:02:18;;;;;;;7.68;5.43;;;-0.50;99.90;;;;;;5103387;28;20249;-78
2023/03/16 05:04:46;;;;;;;5.07;4.32;;;-0.60;99.90;;;;;;5099341;28;20764;-77
2023/03/16 05:07:14;;;;;;;4.95;4.53;;;-0.60;99.90;;;;;;5097180;28;20893;-78
2023/03/16 05:09:42;;;;;;;6.40;5.00;;;-0.60;99.90;;;;;;5095520;28;20246;-79
2023/03/16 05:12:09;;;;;;;5.77;4.10;;;-0.60;99.90;;;;;;5105141;28;20455;-78
2023/03/16 05:14:36;;;;;;;7.83;5.77;;;-0.70;99.90;;;;;;5093083;28;20973;-78
2023/03/16 05:17:04;;;;;;;6.47;5.28;;;-0.70;99.90;;;;;;5096928;28;20753;-79
2023/03/16 05:19:31;;;;;;;8.50;6.10;;;-0.70;99.90;;;;;;5103389;28;20568;-77
2023/03/16 05:21:58;;;;;;;9.30;5.40;;;-0.70;99.90;;;;;;5100074;28;20225;-77
2023/03/16 05:24:27;;;;;;;5.80;5.30;;;-0.70;99.90;;;;;;5100448;28;20882;-78
2023/03/16 05:26:53;;;;;;;5.20;4.70;;;-0.70;99.90;;;;;;5099774;28;21025;-79
2023/03/16 05:29:20;;;;;;;12.27;8.07;;;-0.70;99.90;;;;;;5098344;28;20219;-78
2023/03/16 05:31:47;;;;;;;11.80;6.53;;;-0.70;99.90;;;;;;5106830;28;20193;-78
2023/03/16 05:34:14;;;;;;;5.97;4.68;;;-0.60;99.90;;;;;;5100921;28;20450;-77
2023/03/16 05:36:43;;;;;;;8.18;6.45;;;-0.60;99.90;;;;;;5102031;28;20200;-78
2023/03/16 05:39:10;;;;;;;9.05;6.07;;;-0.60;99.90;;;;;;5105894;28;20208;-77
2023/03/16 05:41:39;;;;;;;7.63;5.75;;;-0.60;99.90;;;;;;5100330;28;20619;-82
2023/03/16 05:44:07;;;;;;;9.48;7.15;;;-0.60;99.90;;;;;;5107167;28;20262;-81
2023/03/16 05:46:34;;;;;;;7.15;6.38;;;-0.60;99.90;;;;;;5095429;28;20227;-80
2023/03/16 05:49:01;;;;;;;9.90;6.88;;;-0.60;99.90;;;;;;5100880;28;20212;-79
2023/03/16 05:51:28;;;;;;;9.00;6.33;;;-0.60;99.90;;;;;;5090647;28;20212;-79
2023/03/16 05:53:56;;;;;;;8.07;6.90;;;-0.60;99.90;;;;;;5102903;28;20470;-79
2023/03/16 05:56:24;;;;;;;9.32;6.47;;;-0.70;99.90;;;;;;5106915;28;20201;-78
2023/03/16 05:58:52;;;;;;;8.55;5.82;;;-0.60;99.90;;;;;;5106601;28;20207;-77
2023/03/16 06:01:20;;;;;;;7.28;6.03;;;-0.60;99.90;;;;;;5103233;28;20197;-79
2023/03/16 06:03:47;;;;;;;8.95;6.65;;;-0.50;99.90;;;;;;5105661;28;20319;-79
2023/03/16 06:06:15;;;;;;;10.73;7.35;;;-0.50;99.90;;;;;;5102973;28;20223;-78
2023/03/16 06:08:42;;;;;;;10.30;6.38;;;-0.40;99.90;;;;;;5107664;28;20246;-78
2023/03/16 06:11:10;;;;;;;12.35;8.02;;;-0.30;99.90;;;;;;5097606;28;20202;-79
2023/03/16 06:13:37;;;;;;;9.05;6.18;;;-0.20;99.90;;;;;;5105184;28;20193;-78
2023/03/16 06:16:07;;;;;;;9.53;7.27;;;-0.10;99.90;;;;;;5100583;28;20201;-80
2023/03/16 06:18:34;;;;;;;7.80;6.33;;;0.10;99.90;;;;;;5098213;28;20442;-78
2023/03/16 06:21:02;;;;;;;12.37;8.03;;;0.20;99.90;;;;;;5102233;28;20475;-79
2023/03/16 06:23:29;;;;;;;9.60;7.13;;;0.30;99.90;;;;;;5099767;28;20707;-81
2023/03/16 06:25:58;;;;;;;14.30;8.73;;;0.40;99.90;;;;;;5095337;28;20563;-78
2023/03/16 06:28:25;;;;;;;11.60;10.02;;;0.50;99.90;;;;;;5101716;28;20471;-78
2023/03/16 06:30:54;;;;;;;11.63;8.37;;;0.50;99.90;;;;;;5099502;28;20271;-78
2023/03/16 06:33:22;;;;;;;12.00;8.23;;;0.60;99.90;;;;;;5102653;28;20458;-77
2023/03/16 06:35:51;;;;;;;9.73;8.47;;;0.80;99.90;;;;;;5098220;28;20455;-75
2023/03/16 06:38:18;;;;;;;11.60;8.27;;;0.90;99.90;;;;;;5102743;28;20467;-76
2023/03/16 06:40:45;;;;;;;10.10;8.53;;;0.90;99.90;;;;;;5105583;28;20451;-77
2023/03/16 06:43:12;;;;;;;11.80;7.60;;;1.10;99.90;;;;;;5101207;28;20851;-79
2023/03/16 06:45:40;;;;;;;10.87;8.90;;;1.10;99.90;;;;;;5102063;28;20479;-76
2023/03/16 06:48:08;;;;;;;10.10;8.60;;;1.10;99.90;;;;;;5094249;28;20439;-76
2023/03/16 06:50:37;;;;;;;7.93;7.10;;;1.10;99.90;;;;;;5100871;28;20656;-76
2023/03/16 06:53:04;;;;;;;7.40;6.33;;;1.20;99.90;;;;;;5099152;28;20509;-76
2023/03/16 06:55:31;;;;;;;11.87;7.20;;;1.20;99.90;;;;;;5101494;28;20524;-79
2023/03/16 06:57:58;;;;;;;9.20;7.33;;;1.20;99.90;;;;;;5101617;28;20622;-77
2023/03/16 07:00:25;;;;;;;10.37;7.20;;;1.20;99.90;;;;;;5096703;28;20534;-78
2023/03/16 07:02:52;;;;;;;8.30;6.77;;;1.30;99.90;;;;;;5102284;28;20483;-77
2023/03/16 07:05:19;;;;;;;7.00;6.10;;;1.40;99.90;;;;;;5100144;28;20534;-79
2023/03/16 07:07:48;;;;;;;10.00;7.90;;;1.50;99.90;;;;;;5097744;28;20594;-78
2023/03/16 07:10:17;;;;;;;12.90;7.60;;;1.50;99.90;;;;;;5104219;28;20537;-79
2023/03/16 07:12:44;;;;;;;6.72;5.70;;;1.60;99.90;;;;;;5100388;28;20550;-77
2023/03/16 07:15:12;;;;;;;9.50;7.50;;;1.60;99.90;;;;;;5096616;28;20205;-81
2023/03/16 07:17:39;;;;;;;8.50;7.20;;;1.70;99.90;;;;;;5105608;28;20455;-78
2023/03/16 07:20:09;;;;;;;9.10;8.00;;;1.80;99.90;;;;;;5106935;28;20515;-77
2023/03/16 07:22:36;;;;;;;10.30;7.17;;;1.90;99.90;;;;;;5104353;28;20466;-81
2023/03/16 07:25:05;;;;;;;7.60;6.40;;;2.00;99.90;;;;;;5100664;28;20486;-76
2023/03/16 07:27:32;;;;;;;9.50;7.60;;;2.00;99.90;;;;;;5099710;28;20513;-77
2023/03/16 07:29:59;;;;;;;11.63;7.40;;;2.10;99.90;;;;;;5103751;28;20462;-77
2023/03/16 07:32:27;;;;;;;7.60;6.57;;;2.10;99.90;;;;;;5099652;28;20458;-77
2023/03/16 07:34:54;;;;;;;7.67;6.43;;;2.00;99.90;;;;;;5097303;28;20489;-78
2023/03/16 07:37:21;;;;;;;7.33;6.53;;;2.10;99.90;;;;;;5104445;28;20503;-79
2023/03/16 07:39:48;;;;;;;9.50;6.67;;;2.20;99.90;;;;;;5104837;28;20450;-79
2023/03/16 07:42:16;;;;;;;7.90;6.60;;;2.20;99.90;;;;;;5100804;28;20463;-77
2023/03/16 07:44:43;;;;;;;10.50;6.93;;;2.30;99.90;;;;;;5089877;28;20517;-77
2023/03/16 07:47:12;;;;;;;6.80;6.00;;;2.40;99.90;;;;;;5095135;28;20500;-79
2023/03/16 07:49:40;;;;;;;7.97;7.17;;;2.40;99.90;;;;;;5104687;28;20527;-79
2023/03/16 07:52:07;;;;;;;7.90;6.50;;;2.50;99.90;;;;;;5104478;28;20521;-78
2023/03/16 07:54:34;;;;;;;10.43;7.00;;;2.60;99.90;;;;;;5094791;28;20521;-78
2023/03/16 07:57:02;;;;;;;7.90;6.27;;;2.60;99.90;;;;;;5099398;28;20463;-77
2023/03/16 07:59:30;;;;;;;7.70;6.63;;;2.60;99.90;;;;;;5105156;28;20922;-79
2023/03/16 08:01:57;;;;;;;6.90;6.30;;;2.80;99.90;;;;;;5106740;28;20442;-78
2023/03/16 08:04:24;;;;;;;6.93;5.57;;;3.00;99.90;;;;;;5105488;28;20454;-77
2023/03/16 08:06:58;;;;;;;8.10;4.93;;;3.30;99.90;;;;;;5106956;28;20486;-77
2023/03/16 08:09:25;;;;;;;5.40;4.60;;;3.20;99.90;;;;;;5101871;28;20462;-78
2023/03/16 08:11:52;;;;;;;6.80;5.13;;;3.30;99.90;;;;;;5105936;28;20442;-77
2023/03/16 08:14:19;;;;;;;5.17;4.70;;;3.50;99.90;;;;;;5096315;28;20462;-78
2023/03/16 08:16:48;;;;;;;6.50;5.43;;;3.40;99.90;;;;;;5106579;28;20462;-77
2023/03/16 08:19:16;;;;;;;8.97;6.93;;;3.40;99.90;;;;;;5098950;28;20450;-78
2023/03/16 08:21:43;;;;;;;6.73;5.67;;;3.30;99.90;;;;;;5097749;28;20451;-79
2023/03/16 08:24:10;;;;;;;6.23;5.70;;;3.40;99.90;;;;;;5099271;28;20532;-80
2023/03/16 08:26:37;;;;;;;5.60;4.80;;;3.60;99.90;;;;;;5102357;28;20928;-79
2023/03/16 08:29:04;;;;;;;7.10;5.30;;;3.60;99.90;;;;;;5101587;28;20874;-80
2023/03/16 08:31:33;;;;;;;5.80;5.07;;;3.60;99.90;;;;;;5096785;28;20492;-79
2023/03/16 08:34:02;;;;;;;6.90;5.47;;;4.00;99.90;;;;;;5091659;28;20550;-77
2023/03/16 08:36:29;;;;;;;5.87;4.53;;;4.00;99.90;;;;;;5100121;28;20455;-75
2023/03/16 08:38:56;;;;;;;3.93;3.30;;;4.10;99.90;;;;;;5092222;28;20539;-75
2023/03/16 08:41:23;;;;;;;5.87;4.30;;;4.10;99.90;;;;;;5103786;28;20496;-79
2023/03/16 08:43:51;;;;;;;3.83;3.40;;;4.20;99.90;;;;;;5093021;28;20491;-77
2023/03/16 08:46:20;;;;;;;7.13;3.87;;;4.20;99.90;;;;;;5095618;28;20486;-78
2023/03/16 08:48:47;;;;;;;10.40;5.93;;;4.10;99.90;;;;;;5105241;28;20457;-78
2023/03/16 08:51:16;;;;;;;3.87;2.93;;;4.40;99.90;;;;;;5106236;28;20458;-79
2023/03/16 08:53:43;;;;;;;3.50;3.10;;;4.50;99.90;;;;;;5104745;28;20460;-77
2023/03/16 08:56:14;;;;;;;3.33;2.17;;;4.50;99.90;;;;;;5095774;28;20463;-75
2023/03/16 08:58:44;;;;;;;13.17;6.90;;;4.60;99.90;;;;;;5091974;28;20447;-77
2023/03/16 09:01:12;;;;;;;4.40;2.87;;;4.80;99.90;;;;;;5095666;28;20458;-78
2023/03/16 09:03:40;;;;;;;10.73;3.83;;;5.00;99.90;;;;;;5094079;28;20444;-76
2023/03/16 09:06:10;;;;;;;6.20;3.70;;;4.90;99.90;;;;;;5106138;28;20567;-75
2023/03/16 09:08:39;;;;;;;5.20;3.57;;;5.10;99.90;;;;;;5102751;28;20462;-79
2023/03/16 09:11:08;;;;;;;3.90;2.83;;;5.10;99.90;;;;;;5095635;28;20454;-76
2023/03/16 09:13:37;;;;;;;4.40;3.10;;;5.00;99.90;;;;;;5098867;28;20458;-77
2023/03/16 09:16:04;;;;;;;4.67;3.80;;;4.80;99.90;;;;;;5102460;28;20503;-76
2023/03/16 09:18:31;;;;;;;3.70;2.70;;;4.90;99.90;;;;;;5105991;28;20450;-76
2023/03/16 09:20:59;;;;;;;3.20;2.90;;;4.80;99.90;;;;;;5105629;28;20869;-79
2023/03/16 09:23:26;;;;;;;3.20;2.70;;;4.90;99.90;;;;;;5097928;28;20570;-78
2023/03/16 09:25:59;;;;;;;2.63;2.10;;;4.90;99.90;;;;;;5100640;28;20489;-77
2023/03/16 09:28:27;;;;;;;3.47;3.17;;;5.00;99.90;;;;;;5093629;28;20449;-78
2023/03/16 09:30:54;;;;;;;11.20;3.23;;;5.00;99.90;;;;;;5101562;28;20462;-78
2023/03/16 09:33:21;;;;;;;3.17;2.83;;;5.10;99.90;;;;;;5104564;28;20462;-78
2023/03/16 09:35:49;;;;;;;2.93;2.73;;;5.30;99.90;;;;;;5098186;28;20493;-77
2023/03/16 09:38:17;;;;;;;1.60;1.50;;;5.10;99.90;;;;;;5096980;28;20848;-76
2023/03/16 09:40:46;;;;;;;2.13;1.93;;;5.50;99.90;;;;;;5105145;28;20450;-78
2023/03/16 09:43:35;;;;;;;4.20;2.00;;;5.70;99.90;;;;;;5103584;28;20453;-76
2023/03/16 09:46:08;;;;;;;2.07;1.30;;;5.90;99.90;;;;;;5094818;28;20483;-77
2023/03/16 09:48:38;;;;;;;3.57;2.30;;;6.00;99.90;;;;;;5100096;28;20466;-77
2023/03/16 09:51:08;;;;;;;2.40;2.13;;;6.00;99.90;;;;;;5106343;28;20454;-77
2023/03/16 09:53:37;;;;;;;3.47;2.07;;;6.20;99.90;;;;;;5104181;28;20527;-78
2023/03/16 09:56:07;;;;;;;2.90;1.93;;;6.30;99.90;;;;;;5107715;28;20532;-77
2023/03/16 09:58:35;;;;;;;2.27;1.97;;;6.20;99.90;;;;;;5099958;28;20458;-77
2023/03/16 10:01:12;;;;;;;2.40;1.60;;;6.40;99.90;;;;;;5101370;28;20434;-77
2023/03/16 10:04:09;;;;;;;4.10;2.20;;;6.60;99.90;;;;;;5105393;28;20472;-76
2023/03/16 10:06:44;;;;;;;3.03;2.30;;;6.50;99.30;;;;;;5082578;28;20559;-76
2023/03/16 10:09:21;;;;;;;3.77;1.97;;;6.20;99.90;;;;;;5108684;28;20446;-76
2023/03/16 10:11:52;;;;;;;2.87;2.63;;;6.10;99.80;;;;;;5099138;28;20510;-78
2023/03/16 10:14:25;;;;;;;2.80;2.53;;;6.20;99.90;;;;;;5106613;28;20906;-78
2023/03/16 10:16:56;;;;;;;3.40;2.60;;;6.30;99.90;;;;;;5105818;28;20510;-76
2023/03/16 10:19:31;;;;;;;3.20;2.67;;;6.30;99.90;;;;;;5102912;28;20454;-77
2023/03/16 10:22:02;;;;;;;2.47;2.27;;;6.60;99.90;;;;;;5100207;28;20447;-76
2023/03/16 10:24:43;;;;;;;3.10;2.63;;;6.50;99.90;;;;;;5105109;28;20537;-78
2023/03/16 10:27:19;;;;;;;2.80;2.60;;;6.50;99.90;;;;;;5098358;28;20571;-77
2023/03/16 10:29:47;;;;;;;2.30;2.20;;;6.50;99.90;;;;;;5102178;27;20465;-78
2023/03/16 10:32:17;;;;;;;7.80;2.20;;;6.80;99.90;;;;;;5105436;28;20470;-76
2023/03/16 10:34:49;;;;;;;2.10;1.90;;;6.60;99.90;;;;;;5101143;28;20553;-78
2023/03/16 10:37:16;;;;;;;3.63;2.00;;;6.60;99.90;;;;;;5100040;28;20520;-76
2023/03/16 10:39:42;;;;;;;2.30;1.90;;;6.40;99.00;;;;;;5101702;28;20466;-77
2023/03/16 10:42:16;;;;;;;1.80;1.70;;;6.50;99.90;;;;;;5090602;28;21063;-77
2023/03/16 10:44:44;;;;;;;2.23;1.60;;;6.90;99.90;;;;;;5103086;28;21273;-78
2023/03/16 10:47:19;;;;;;;4.03;2.00;;;6.80;99.10;;;;;;5092329;28;21037;-77
2023/03/16 10:49:47;;;;;;;1.70;1.60;;;6.70;96.90;;;;;;5096317;28;20455;-77
2023/03/16 10:52:19;;;;;;;1.50;1.33;;;6.80;99.00;;;;;;5102919;28;20507;-76
2023/03/16 10:54:53;;;;;;;3.03;1.77;;;7.00;99.80;;;;;;5098961;28;20579;-77
2023/03/16 10:57:24;;;;;;;2.23;2.03;;;7.20;97.80;;;;;;5108957;28;20451;-78
2023/03/16 10:59:53;;;;;;;1.70;1.43;;;7.20;97.00;;;;;;5095525;28;21137;-78
2023/03/16 11:02:25;;;;;;;1.77;1.23;;;7.30;97.00;;;;;;5100951;28;20942;-76
2023/03/16 11:04:53;;;;;;;1.80;1.70;;;7.30;98.50;;;;;;5096038;28;20444;-77
2023/03/16 11:07:23;;;;;;;2.40;2.10;;;7.50;95.10;;;;;;5105962;28;20474;-78
2023/03/16 11:09:51;;;;;;;2.30;2.10;;;7.70;96.90;;;;;;5104192;28;20954;-76
2023/03/16 11:12:24;;;;;;;1.80;1.70;;;7.90;95.50;;;;;;5099816;28;20520;-77
2023/03/16 11:14:52;;;;;;;1.20;1.13;;;7.90;94.30;;;;;;5106470;28;20957;-78
2023/03/16 11:17:29;;;;;;;2.07;1.57;;;7.90;95.20;;;;;;5106529;28;20458;-79
2023/03/16 11:20:00;;;;;;;1.83;1.50;;;7.70;92.10;;;;;;5106051;28;20458;-77
2023/03/16 11:22:28;;;;;;;1.43;1.33;;;7.60;91.40;;;;;;5098725;28;20459;-77
2023/03/16 11:25:05;;;;;;;1.33;1.23;;;7.60;93.10;;;;;;5106694;28;20482;-78
2023/03/16 11:27:38;;;;;;;2.00;1.80;;;7.60;91.60;;;;;;5098210;28;20485;-78
2023/03/16 11:30:13;;;;;;;1.73;1.57;;;7.80;92.80;;;;;;5093348;28;20906;-79
2023/03/16 11:32:52;;;;;;;2.10;1.60;;;7.90;93.40;;;;;;5097604;28;20442;-77
2023/03/16 11:35:21;;;;;;;1.90;1.10;;;8.00;92.40;;;;;;5107670;28;20442;-78
2023/03/16 11:38:14;;;;;;;4.23;1.70;;;7.80;93.20;;;;;;5104780;28;20527;-78
2023/03/16 11:40:50;;;;;;;1.60;1.50;;;7.80;93.10;;;;;;5080874;28;20516;-77
2023/03/16 11:43:36;;;;;;;1.83;1.23;;;7.80;90.60;;;;;;5101824;28;20514;-78
2023/03/16 11:46:12;;;;;;;2.80;1.57;;;7.60;91.50;;;;;;5098660;28;20555;-77
2023/03/16 11:48:45;;;;;;;1.93;1.13;;;7.80;92.10;;;;;;5100679;28;20472;-76
2023/03/16 11:51:31;;;;;;;1.70;1.60;;;8.00;90.70;;;;;;5099588;28;20884;-77
2023/03/16 11:54:09;;;;;;;2.00;1.30;;;7.90;92.50;;;;;;5098356;28;20442;-78
2023/03/16 11:56:42;;;;;;;2.77;2.03;;;8.20;93.80;;;;;;5106055;28;20511;-76
2023/03/16 11:59:52;;;;;;;1.37;1.27;;;8.40;93.80;;;;;;5099406;28;20434;-77
2023/03/16 12:02:50;;;;;;;2.60;1.37;;;8.10;88.70;;;;;;5087407;28;20887;-78
2023/03/16 12:05:41;;;;;;;1.90;1.50;;;7.90;90.10;;;;;;5102300;28;20461;-76
2023/03/16 12:08:26;;;;;;;1.87;1.77;;;7.90;91.40;;;;;;5094262;28;20828;-78
2023/03/16 12:10:59;;;;;;;2.83;2.37;;;8.30;91.10;;;;;;5094553;28;20531;-78
2023/03/16 12:13:46;;;;;;;2.63;1.77;;;8.20;91.50;;;;;;5107439;28;20529;-77
2023/03/16 12:16:19;;;;;;;1.80;1.70;;;8.30;90.60;;;;;;5101543;28;20440;-79
2023/03/16 12:18:52;;;;;;;1.70;1.60;;;8.40;92.60;;;;;;5098369;28;20503;-79
2023/03/16 12:21:24;;;;;;;1.27;1.17;;;8.30;90.00;;;;;;5104185;28;20462;-78
2023/03/16 12:23:54;;;;;;;2.53;1.40;;;8.40;90.90;;;;;;5098587;28;21151;-78
2023/03/16 12:26:24;;;;;;;1.50;1.40;;;8.40;90.80;;;;;;5104345;28;20498;-77
2023/03/16 12:28:53;;;;;;;2.30;1.30;;;8.10;84.40;;;;;;5104837;28;20458;-77
2023/03/16 12:31:23;;;;;;;1.30;1.20;;;8.10;88.40;;;;;;5094215;28;20562;-77
2023/03/16 12:34:09;;;;;;;1.50;1.40;;;8.20;91.50;;;;;;5102398;28;20446;-76
2023/03/16 12:36:52;;;;;;;2.40;0.93;;;8.30;90.80;;;;;;5101489;28;20454;-80
2023/03/16 12:39:33;;;;;;;0.87;0.80;;;8.20;85.30;;;;;;5094352;28;20451;-76
2023/03/16 12:42:13;;;;;;;1.30;1.10;;;8.10;82.60;;;;;;5103910;28;20486;-75
2023/03/16 12:44:47;;;;;;;1.27;1.17;;;8.20;84.90;;;;;;5089052;28;20492;-77
2023/03/16 12:47:27;;;;;;;1.07;1.07;;;8.40;92.10;;;;;;5100965;28;20486;-77
2023/03/16 12:49:55;;;;;;;1.47;1.00;;;8.30;84.10;;;;;;5102855;28;20465;-77
2023/03/16 12:52:23;;;;;;;2.03;1.20;;;8.60;87.00;;;;;;5104711;28;20461;-76
2023/03/16 12:54:52;;;;;;;2.50;0.93;;;8.60;85.50;;;;;;5089734;28;20447;-77
2023/03/16 12:57:21;;;;;;;1.40;1.30;;;8.70;88.60;;;;;;5097657;28;20462;-77
2023/03/16 12:59:50;;;;;;;1.20;0.90;;;8.80;85.60;;;;;;5099632;28;20455;-75
2023/03/16 13:02:19;;;;;;;1.77;0.90;;;8.70;84.10;;;;;;5101797;28;20458;-76
2023/03/16 13:04:50;;;;;;;2.00;0.90;;;8.60;83.50;;;;;;5100575;28;20454;-78